Time;durP1;ratioP1;P1;durP2;ratioP2;P2;SDS_P1;SDS_P2;PMS_P1;PMS_P2;Temp;Humidity;BMP_temperature;BMP_pressure;BME280_temperature;BME280_humidity;BME280_pressure;Samples;Min_cycle;Max_cycle;Signal;HPM_P1;HPM_P2
2022/04/30 00:00:30;;;;;;;23.05;11.70;;;8.60;99.90;;;;;;4991391;28;20022;-63
2022/04/30 00:03:00;;;;;;;21.83;12.40;;;8.50;99.90;;;;;;4999415;28;20030;-62
2022/04/30 00:05:30;;;;;;;17.00;10.53;;;8.40;99.90;;;;;;4992466;28;20710;-63
2022/04/30 00:07:56;;;;;;;22.58;11.30;;;8.40;99.90;;;;;;5010003;28;20033;-63
2022/04/30 00:10:22;;;;;;;22.25;11.93;;;8.40;99.90;;;;;;5006166;28;20044;-62
2022/04/30 00:12:47;;;;;;;21.42;11.95;;;8.40;99.90;;;;;;5003985;28;20030;-63
2022/04/30 00:15:13;;;;;;;21.55;11.07;;;8.50;99.90;;;;;;4992660;28;20050;-63
2022/04/30 00:17:39;;;;;;;20.20;11.95;;;8.40;99.90;;;;;;4991522;28;20042;-63
2022/04/30 00:20:06;;;;;;;19.73;11.10;;;8.40;99.90;;;;;;4992240;28;20047;-63
2022/04/30 00:22:32;;;;;;;24.20;11.85;;;8.40;99.90;;;;;;5002369;28;20021;-63
2022/04/30 00:24:57;;;;;;;21.52;12.13;;;8.50;99.90;;;;;;5002641;28;20473;-63
2022/04/30 00:27:23;;;;;;;21.52;11.85;;;8.40;99.90;;;;;;4991911;28;20117;-63
2022/04/30 00:29:49;;;;;;;20.70;11.68;;;8.30;99.90;;;;;;5003848;28;20394;-63
2022/04/30 00:32:17;;;;;;;20.73;12.07;;;8.40;99.90;;;;;;5007102;28;20092;-63
2022/04/30 00:34:43;;;;;;;20.10;11.35;;;8.50;99.90;;;;;;4997119;28;20038;-63
2022/04/30 00:37:09;;;;;;;19.17;11.93;;;8.60;99.90;;;;;;5001380;28;20034;-63
2022/04/30 00:39:35;;;;;;;22.35;11.95;;;8.60;99.90;;;;;;4992362;28;20030;-63
2022/04/30 00:42:01;;;;;;;19.73;11.23;;;8.60;99.90;;;;;;4995618;28;20764;-63
2022/04/30 00:44:27;;;;;;;21.63;12.07;;;8.50;99.90;;;;;;4976857;28;20121;-63
2022/04/30 00:46:54;;;;;;;22.13;12.23;;;8.50;99.90;;;;;;5006955;28;20046;-63
2022/04/30 00:49:19;;;;;;;25.45;12.65;;;8.40;99.90;;;;;;5007534;28;20037;-63
2022/04/30 00:51:47;;;;;;;23.23;12.02;;;8.30;99.90;;;;;;4998359;28;20030;-63
2022/04/30 00:54:14;;;;;;;20.30;11.82;;;8.30;99.90;;;;;;4986278;28;20109;-63
2022/04/30 00:56:55;;;;;;;21.30;12.60;;;8.30;99.90;;;;;;5001054;28;20027;-63
2022/04/30 00:59:24;;;;;;;21.35;11.65;;;8.20;99.90;;;;;;4990075;28;20045;-63
2022/04/30 01:01:50;;;;;;;22.88;12.65;;;8.10;99.90;;;;;;4994444;28;20029;-63
2022/04/30 01:04:21;;;;;;;24.13;12.40;;;8.00;99.90;;;;;;4972672;28;20433;-62
2022/04/30 01:06:49;;;;;;;21.08;11.38;;;8.10;99.90;;;;;;4988563;28;20069;-63
2022/04/30 01:09:21;;;;;;;23.00;12.85;;;8.10;99.90;;;;;;4990146;28;20088;-63
2022/04/30 01:11:58;;;;;;;23.35;12.43;;;8.10;99.90;;;;;;4998618;28;20013;-63
2022/04/30 01:14:34;;;;;;;22.23;12.50;;;8.20;99.90;;;;;;4989749;28;20112;-63
2022/04/30 01:17:05;;;;;;;21.55;12.50;;;8.20;99.90;;;;;;5000323;28;20061;-63
2022/04/30 01:19:37;;;;;;;24.50;13.55;;;8.10;99.90;;;;;;5004845;28;20117;-63
2022/04/30 01:22:21;;;;;;;21.85;11.98;;;8.20;99.90;;;;;;5003124;28;20038;-63
2022/04/30 01:24:48;;;;;;;21.58;12.15;;;8.10;99.90;;;;;;4990751;28;20034;-62
2022/04/30 01:27:16;;;;;;;22.85;12.27;;;8.10;99.90;;;;;;4998795;28;20046;-62
2022/04/30 01:29:42;;;;;;;21.60;12.45;;;8.20;99.90;;;;;;4999166;28;20029;-63
2022/04/30 01:37:37;;;;;;;23.40;12.32;;;8.10;99.90;;;;;;5006920;28;20072;-63
2022/04/30 01:40:12;;;;;;;24.30;13.65;;;8.10;99.90;;;;;;4991555;28;20449;-62
2022/04/30 01:42:45;;;;;;;24.25;12.77;;;8.20;99.90;;;;;;4992925;28;20057;-63
2022/04/30 01:45:12;;;;;;;23.23;12.35;;;8.20;99.90;;;;;;4992930;28;20065;-63
2022/04/30 01:47:44;;;;;;;26.67;12.95;;;8.20;99.90;;;;;;4991510;28;20433;-63
2022/04/30 01:50:10;;;;;;;22.88;12.75;;;8.20;99.90;;;;;;5001109;28;20474;-63
2022/04/30 01:52:36;;;;;;;20.83;12.35;;;8.20;99.90;;;;;;5007120;28;20041;-63
2022/04/30 01:55:03;;;;;;;24.05;12.73;;;8.20;99.90;;;;;;4995374;28;20034;-63
2022/04/30 01:57:29;;;;;;;24.45;12.95;;;8.20;99.90;;;;;;4988763;28;20037;-63
2022/04/30 02:00:00;;;;;;;25.20;13.13;;;8.20;99.90;;;;;;4992554;28;20034;-63
2022/04/30 02:02:34;;;;;;;28.58;14.68;;;8.10;99.90;;;;;;4995574;28;20021;-63
2022/04/30 02:05:03;;;;;;;26.33;14.82;;;8.10;99.90;;;;;;5006691;28;20444;-62
2022/04/30 02:07:31;;;;;;;26.50;13.82;;;8.10;99.90;;;;;;5000226;28;20036;-63
2022/04/30 02:09:59;;;;;;;24.55;13.05;;;8.20;99.90;;;;;;4999638;28;20489;-63
2022/04/30 02:12:27;;;;;;;23.98;12.43;;;8.20;99.90;;;;;;5009331;28;20030;-63
2022/04/30 02:14:55;;;;;;;23.05;13.05;;;8.20;99.90;;;;;;4986429;28;20057;-62
2022/04/30 02:17:22;;;;;;;22.73;12.93;;;8.00;99.90;;;;;;5007497;28;20046;-62
2022/04/30 02:22:38;;;;;;;22.90;12.93;;;8.10;99.90;;;;;;4993510;28;20045;-62
2022/04/30 02:25:09;;;;;;;25.45;13.45;;;8.10;99.90;;;;;;4999503;28;20034;-63
2022/04/30 02:27:39;;;;;;;30.50;13.80;;;8.10;99.90;;;;;;5009180;28;20045;-62
2022/04/30 02:30:07;;;;;;;25.05;13.18;;;8.10;99.90;;;;;;5009045;28;20541;-63
2022/04/30 02:32:44;;;;;;;22.63;12.90;;;8.20;99.90;;;;;;5005318;28;20152;-63
2022/04/30 02:35:10;;;;;;;21.90;12.80;;;8.20;99.90;;;;;;5007156;28;20370;-63
2022/04/30 02:37:36;;;;;;;26.60;13.60;;;8.10;99.90;;;;;;4994445;28;20030;-63
2022/04/30 02:40:05;;;;;;;23.40;13.55;;;8.10;99.90;;;;;;5000602;28;20389;-63
2022/04/30 02:42:32;;;;;;;25.63;13.45;;;8.10;99.90;;;;;;5008819;28;20161;-63
2022/04/30 02:44:58;;;;;;;21.90;12.25;;;8.10;99.90;;;;;;5003514;28;20034;-63
2022/04/30 02:47:23;;;;;;;24.98;13.23;;;8.10;99.90;;;;;;4993284;28;20048;-63
2022/04/30 02:49:49;;;;;;;24.10;12.60;;;8.10;99.90;;;;;;4995403;28;20022;-62
2022/04/30 02:52:15;;;;;;;21.30;12.52;;;8.10;99.90;;;;;;5006584;28;20069;-62
2022/04/30 02:54:41;;;;;;;24.65;13.30;;;8.20;99.90;;;;;;4988978;28;20038;-63
2022/04/30 02:57:06;;;;;;;28.38;14.73;;;8.10;99.90;;;;;;5001591;28;20466;-62
2022/04/30 03:02:16;;;;;;;27.73;14.70;;;7.90;99.90;;;;;;5001284;28;20069;-63
2022/04/30 03:04:41;;;;;;;29.48;15.85;;;7.70;99.90;;;;;;5008436;28;20061;-63
2022/04/30 03:07:11;;;;;;;31.52;15.30;;;7.80;99.90;;;;;;5006948;28;20120;-63
2022/04/30 03:09:39;;;;;;;25.48;13.82;;;7.80;99.90;;;;;;5010279;28;20038;-63
2022/04/30 03:12:08;;;;;;;24.05;13.40;;;7.80;99.90;;;;;;4993766;28;20049;-63
2022/04/30 03:14:34;;;;;;;26.25;13.88;;;7.90;99.90;;;;;;5008904;28;20474;-63
2022/04/30 03:22:30;;;;;;;28.70;15.07;;;7.90;99.90;;;;;;4998207;28;20029;-63
2022/04/30 03:24:55;;;;;;;25.65;14.07;;;8.00;99.90;;;;;;4999754;28;20034;-63
2022/04/30 03:27:21;;;;;;;27.85;14.48;;;8.00;99.90;;;;;;5009410;28;20042;-63
2022/04/30 03:29:46;;;;;;;29.02;14.35;;;8.00;99.90;;;;;;5008601;28;20030;-63
2022/04/30 03:32:13;;;;;;;27.67;14.85;;;8.10;99.90;;;;;;4984441;28;20029;-63
2022/04/30 03:34:39;;;;;;;28.52;15.70;;;8.10;99.90;;;;;;5007255;28;20517;-63
2022/04/30 03:37:05;;;;;;;28.17;14.98;;;8.20;99.90;;;;;;4991371;28;20061;-63
2022/04/30 03:39:30;;;;;;;26.02;14.68;;;8.20;99.90;;;;;;5000296;28;20077;-63
2022/04/30 03:41:56;;;;;;;29.02;14.68;;;8.30;99.90;;;;;;5003827;28;20543;-63
2022/04/30 03:44:23;;;;;;;28.08;15.45;;;8.30;99.90;;;;;;4978346;28;20078;-63
2022/04/30 03:46:49;;;;;;;26.83;14.73;;;8.30;99.90;;;;;;5000000;28;20033;-63
2022/04/30 03:49:15;;;;;;;26.20;14.68;;;8.40;99.90;;;;;;5007998;28;20042;-63
2022/04/30 03:51:40;;;;;;;26.33;14.73;;;8.50;99.90;;;;;;4993189;28;20105;-63
2022/04/30 03:54:06;;;;;;;28.45;15.90;;;8.60;99.90;;;;;;5010226;28;20038;-63
2022/04/30 03:56:32;;;;;;;29.55;15.55;;;8.70;99.90;;;;;;5007725;28;20061;-63
2022/04/30 03:58:58;;;;;;;28.80;15.60;;;8.80;99.90;;;;;;5004169;28;20032;-63
2022/04/30 04:01:24;;;;;;;32.22;15.50;;;8.80;99.90;;;;;;4991181;28;20463;-63
2022/04/30 04:03:50;;;;;;;29.08;15.05;;;8.80;99.90;;;;;;4995268;28;20042;-63
2022/04/30 04:06:17;;;;;;;31.05;15.57;;;8.80;99.90;;;;;;4998067;28;20042;-63
2022/04/30 04:08:43;;;;;;;27.48;14.77;;;8.80;99.90;;;;;;5003211;28;20451;-63
2022/04/30 04:11:13;;;;;;;27.92;15.40;;;8.80;99.90;;;;;;5000978;28;20530;-63
2022/04/30 04:19:10;;;;;;;26.85;14.55;;;8.80;99.90;;;;;;4997319;28;20033;-63
2022/04/30 04:21:36;;;;;;;23.73;13.60;;;8.80;99.90;;;;;;5004951;28;20033;-63
2022/04/30 04:26:46;;;;;;;30.73;15.82;;;8.60;99.90;;;;;;5001398;28;20053;-63
2022/04/30 04:29:13;;;;;;;32.20;16.88;;;8.60;99.90;;;;;;4984249;28;20040;-63
2022/04/30 04:31:39;;;;;;;28.38;15.73;;;8.60;99.90;;;;;;5003916;28;20033;-62
2022/04/30 04:34:04;;;;;;;30.52;16.13;;;8.50;99.90;;;;;;5003347;28;20036;-63
2022/04/30 04:36:30;;;;;;;30.33;16.17;;;8.50;99.90;;;;;;5006227;28;20616;-62
2022/04/30 04:38:56;;;;;;;32.33;16.90;;;8.60;99.90;;;;;;4995653;28;20050;-62
2022/04/30 04:41:21;;;;;;;34.72;16.20;;;8.70;99.90;;;;;;5004082;28;20030;-62
2022/04/30 04:43:47;;;;;;;33.40;17.80;;;8.70;99.90;;;;;;5005784;28;20382;-63
2022/04/30 04:46:13;;;;;;;31.70;16.42;;;8.70;99.90;;;;;;4987033;28;20048;-63
2022/04/30 04:48:39;;;;;;;34.80;16.60;;;8.70;99.90;;;;;;4994730;28;20029;-63
2022/04/30 04:51:05;;;;;;;33.38;17.02;;;8.70;99.90;;;;;;4998498;28;20056;-63
2022/04/30 04:53:31;;;;;;;31.27;16.90;;;8.80;99.90;;;;;;4995939;28;20064;-63
2022/04/30 04:55:58;;;;;;;29.88;16.88;;;8.80;99.90;;;;;;4998638;28;20038;-63
2022/04/30 04:58:23;;;;;;;30.75;17.00;;;8.90;99.90;;;;;;5000476;28;20037;-62
2022/04/30 05:00:49;;;;;;;33.85;16.73;;;8.90;99.90;;;;;;5001311;28;20038;-63
2022/04/30 05:03:15;;;;;;;31.30;17.45;;;8.90;99.90;;;;;;5006429;28;20034;-63
2022/04/30 05:05:40;;;;;;;33.35;16.75;;;8.90;99.90;;;;;;4996481;28;20090;-63
2022/04/30 05:08:06;;;;;;;34.25;18.05;;;9.00;99.90;;;;;;4992502;28;20089;-63
2022/04/30 05:10:32;;;;;;;35.67;17.55;;;9.00;99.90;;;;;;5000757;28;20022;-63
2022/04/30 05:12:57;;;;;;;37.15;19.10;;;9.00;99.90;;;;;;5002942;28;20027;-63
2022/04/30 05:15:23;;;;;;;34.75;18.52;;;9.10;99.90;;;;;;5009411;28;20053;-63
2022/04/30 05:17:49;;;;;;;39.55;18.52;;;9.20;99.90;;;;;;4987476;28;20039;-63
2022/04/30 05:20:14;;;;;;;39.95;19.17;;;9.20;99.90;;;;;;5000252;28;20042;-63
2022/04/30 05:22:40;;;;;;;35.92;18.70;;;9.30;99.90;;;;;;4988993;28;20137;-63
2022/04/30 05:25:07;;;;;;;35.95;18.50;;;9.30;99.90;;;;;;5002165;28;20113;-63
2022/04/30 05:27:33;;;;;;;38.05;19.20;;;9.30;99.90;;;;;;4993456;28;20126;-63
2022/04/30 05:29:58;;;;;;;36.22;18.35;;;9.40;99.90;;;;;;4999842;28;20097;-63
2022/04/30 05:32:24;;;;;;;39.72;20.45;;;9.40;99.90;;;;;;5007447;28;20038;-63
2022/04/30 05:34:50;;;;;;;40.42;19.08;;;9.40;99.90;;;;;;5007215;28;20030;-63
2022/04/30 05:37:16;;;;;;;41.95;19.40;;;9.40;99.90;;;;;;4999978;28;20101;-63
2022/04/30 05:39:41;;;;;;;43.00;20.65;;;9.50;99.90;;;;;;5003547;28;20431;-63
2022/04/30 05:42:07;;;;;;;41.15;20.67;;;9.50;99.90;;;;;;4997677;28;20033;-63
2022/04/30 05:44:33;;;;;;;42.33;21.52;;;9.60;99.90;;;;;;5009070;28;20500;-63
2022/04/30 05:46:58;;;;;;;41.17;19.85;;;9.60;99.90;;;;;;5008162;28;20033;-63
2022/04/30 05:49:24;;;;;;;48.05;21.52;;;9.60;99.90;;;;;;5010576;28;20486;-62
2022/04/30 05:51:50;;;;;;;44.10;21.05;;;9.60;99.90;;;;;;5012065;28;20120;-63
2022/04/30 05:54:16;;;;;;;43.80;21.42;;;9.60;99.90;;;;;;4977410;28;20026;-63
2022/04/30 05:56:41;;;;;;;42.08;20.92;;;9.60;99.90;;;;;;5004608;28;20125;-63
2022/04/30 05:59:08;;;;;;;44.17;20.85;;;9.70;99.90;;;;;;4979778;28;20534;-63
2022/04/30 06:01:34;;;;;;;45.70;22.20;;;9.80;99.90;;;;;;4999433;28;20098;-63
2022/04/30 06:04:00;;;;;;;44.88;20.73;;;9.80;99.90;;;;;;4994574;28;20054;-62
2022/04/30 06:06:26;;;;;;;41.13;21.60;;;9.90;99.90;;;;;;5012978;28;20069;-63
2022/04/30 06:08:52;;;;;;;39.60;20.08;;;9.90;99.90;;;;;;5012049;28;20026;-63
2022/04/30 06:11:17;;;;;;;42.55;21.15;;;9.90;99.90;;;;;;5012105;28;20030;-63
2022/04/30 06:13:43;;;;;;;43.97;20.55;;;9.90;99.90;;;;;;5021090;28;20044;-62
2022/04/30 06:16:09;;;;;;;41.83;20.70;;;9.90;99.90;;;;;;5020935;28;20132;-63
2022/04/30 06:18:34;;;;;;;44.08;21.73;;;9.90;99.90;;;;;;5012882;28;20834;-63
2022/04/30 06:21:01;;;;;;;39.53;20.73;;;9.90;99.90;;;;;;5011626;28;20037;-62
2022/04/30 06:23:27;;;;;;;40.85;20.10;;;10.00;99.90;;;;;;5012123;28;20041;-63
2022/04/30 06:25:52;;;;;;;40.95;20.88;;;10.00;99.90;;;;;;5011648;28;20033;-63
2022/04/30 06:28:19;;;;;;;39.30;20.75;;;10.00;99.90;;;;;;5020474;28;20076;-62
2022/04/30 06:30:45;;;;;;;42.72;20.80;;;10.10;99.90;;;;;;5031375;28;20033;-63
2022/04/30 06:33:11;;;;;;;42.05;20.40;;;10.10;99.90;;;;;;5032540;28;20100;-63
2022/04/30 06:35:37;;;;;;;42.58;20.27;;;10.00;99.90;;;;;;5032236;28;20037;-63
2022/04/30 06:38:04;;;;;;;45.97;21.55;;;10.00;99.90;;;;;;5028953;28;20474;-63
2022/04/30 06:40:31;;;;;;;42.58;21.05;;;10.10;99.90;;;;;;5032146;28;20040;-62
2022/04/30 06:42:57;;;;;;;41.80;20.33;;;10.10;99.90;;;;;;5031275;28;20064;-63
2022/04/30 06:45:23;;;;;;;43.20;20.33;;;10.20;99.90;;;;;;5010809;28;20054;-62
2022/04/30 06:47:48;;;;;;;42.45;19.83;;;10.20;99.90;;;;;;4993845;28;20056;-62
2022/04/30 06:50:14;;;;;;;37.15;19.27;;;10.20;99.90;;;;;;5017420;28;20397;-62
2022/04/30 06:57:07;;;;;;;44.13;20.77;;;10.20;99.90;;;;;;5010752;28;20088;-62
2022/04/30 06:58:10;;;;;;;43.17;20.83;;;10.30;99.90;;;;;;5020992;28;20136;-62
2022/04/30 07:01:25;;;;;;;41.55;19.60;;;10.30;99.90;;;;;;5026609;28;20025;-63
2022/04/30 07:03:27;;;;;;;34.38;18.75;;;10.40;99.90;;;;;;5029274;28;20046;-62
2022/04/30 07:06:03;;;;;;;41.13;19.75;;;10.40;99.90;;;;;;5020301;28;20485;-62
2022/04/30 07:08:33;;;;;;;40.60;18.75;;;10.50;99.90;;;;;;5011926;28;20030;-63
2022/04/30 07:11:03;;;;;;;36.95;19.50;;;10.50;99.90;;;;;;5002840;28;20137;-63
2022/04/30 07:13:32;;;;;;;38.28;20.45;;;10.60;99.90;;;;;;5011567;28;20026;-63
2022/04/30 07:15:58;;;;;;;37.75;19.70;;;10.70;99.90;;;;;;5010607;28;20161;-62
2022/04/30 07:18:24;;;;;;;39.25;19.80;;;10.80;99.90;;;;;;5011733;28;20037;-62
2022/04/30 07:20:51;;;;;;;41.33;19.95;;;10.80;99.90;;;;;;5011157;28;20665;-62
2022/04/30 07:23:17;;;;;;;35.85;19.13;;;10.80;99.90;;;;;;5011615;28;20069;-63
2022/04/30 07:25:43;;;;;;;39.80;18.88;;;11.00;99.90;;;;;;5019661;28;20042;-62
2022/04/30 07:28:08;;;;;;;36.90;18.63;;;11.10;99.90;;;;;;5010578;28;20219;-63
2022/04/30 07:30:34;;;;;;;41.05;18.77;;;11.10;99.90;;;;;;5011204;28;20046;-63
2022/04/30 07:33:00;;;;;;;38.85;18.13;;;11.20;99.90;;;;;;5010572;28;20376;-63
2022/04/30 07:35:25;;;;;;;34.33;18.48;;;11.30;99.90;;;;;;5011441;28;20048;-63
2022/04/30 07:37:51;;;;;;;40.10;19.33;;;11.30;99.90;;;;;;5015245;28;20108;-62
2022/04/30 07:40:17;;;;;;;35.13;17.88;;;11.30;99.90;;;;;;5030880;28;20033;-63
2022/04/30 07:42:42;;;;;;;39.92;18.40;;;11.30;99.90;;;;;;5010625;28;20109;-62
2022/04/30 07:45:09;;;;;;;38.33;18.35;;;11.30;99.90;;;;;;4993332;28;20103;-63
2022/04/30 07:47:34;;;;;;;34.72;18.25;;;11.40;99.90;;;;;;5008782;28;20509;-62
2022/04/30 07:50:01;;;;;;;34.50;17.70;;;11.40;99.90;;;;;;5009095;28;20038;-62
2022/04/30 07:52:26;;;;;;;37.47;18.65;;;11.50;99.90;;;;;;5008515;28;20034;-68
2022/04/30 07:54:52;;;;;;;41.58;18.48;;;11.70;99.90;;;;;;5001100;28;20486;-61
2022/04/30 07:57:20;;;;;;;40.28;18.05;;;11.70;99.90;;;;;;5008230;28;20033;-62
2022/04/30 07:59:46;;;;;;;36.65;17.75;;;11.80;99.90;;;;;;5010807;28;20029;-62
2022/04/30 08:02:12;;;;;;;32.67;17.20;;;12.00;99.90;;;;;;5019838;28;20386;-62
2022/04/30 08:04:38;;;;;;;33.72;16.67;;;12.20;99.90;;;;;;5030330;28;20529;-62
2022/04/30 08:07:04;;;;;;;35.50;17.08;;;12.50;99.90;;;;;;5029622;28;20053;-62
2022/04/30 08:09:30;;;;;;;30.98;17.42;;;12.50;99.90;;;;;;5030322;28;20140;-62
2022/04/30 08:11:56;;;;;;;34.92;17.17;;;12.80;99.90;;;;;;5030031;28;20029;-62
2022/04/30 08:14:21;;;;;;;32.35;16.25;;;12.70;99.90;;;;;;5016035;28;20038;-62
2022/04/30 08:16:47;;;;;;;29.70;16.40;;;12.60;99.90;;;;;;5017865;28;20045;-62
2022/04/30 08:19:15;;;;;;;30.48;16.35;;;12.50;99.90;;;;;;5029413;28;20112;-62
2022/04/30 08:21:40;;;;;;;31.92;16.92;;;12.70;99.90;;;;;;5030002;28;20037;-62
2022/04/30 08:24:06;;;;;;;35.03;17.17;;;12.70;99.90;;;;;;4997579;28;20095;-62
2022/04/30 08:26:32;;;;;;;30.98;15.95;;;12.80;99.90;;;;;;5010011;28;20029;-62
2022/04/30 08:28:58;;;;;;;33.70;17.38;;;12.90;99.90;;;;;;5009649;28;20033;-62
2022/04/30 08:31:24;;;;;;;34.88;17.55;;;13.20;99.90;;;;;;5017975;28;20030;-62
2022/04/30 08:33:51;;;;;;;30.92;16.33;;;13.40;99.90;;;;;;5029792;28;20454;-62
2022/04/30 08:36:18;;;;;;;32.70;16.88;;;13.50;99.90;;;;;;5029472;28;20466;-62
2022/04/30 08:38:44;;;;;;;32.30;16.52;;;13.60;99.90;;;;;;5029977;28;20343;-62
2022/04/30 08:41:10;;;;;;;32.38;16.52;;;13.50;99.90;;;;;;5028948;28;20105;-63
2022/04/30 08:43:39;;;;;;;41.03;16.92;;;13.50;99.90;;;;;;5029851;28;20064;-62
2022/04/30 08:46:05;;;;;;;32.30;16.95;;;13.70;99.90;;;;;;5027636;28;20045;-63
2022/04/30 08:48:32;;;;;;;33.92;16.73;;;13.70;99.90;;;;;;5010571;28;20061;-63
2022/04/30 08:50:58;;;;;;;28.70;15.90;;;13.90;99.90;;;;;;4991449;28;20026;-63
2022/04/30 08:53:24;;;;;;;30.98;16.02;;;14.20;99.90;;;;;;5010130;28;20232;-63
2022/04/30 08:55:49;;;;;;;27.80;15.80;;;14.40;99.90;;;;;;5009529;28;20048;-63
2022/04/30 08:58:16;;;;;;;28.08;15.60;;;14.40;99.90;;;;;;5015321;28;20025;-62
2022/04/30 09:00:44;;;;;;;35.20;17.77;;;14.40;99.90;;;;;;5029210;28;20033;-62
2022/04/30 09:03:19;;;;;;;33.25;17.77;;;14.50;99.90;;;;;;5010677;28;20892;-62
2022/04/30 09:05:45;;;;;;;36.10;17.17;;;14.40;99.90;;;;;;5029587;28;20043;-63
2022/04/30 09:08:11;;;;;;;34.45;17.95;;;14.50;99.90;;;;;;5028719;28;20037;-63
2022/04/30 09:10:41;;;;;;;35.35;18.35;;;14.50;99.90;;;;;;5019998;28;20422;-63
2022/04/30 09:13:14;;;;;;;35.55;18.02;;;14.70;99.90;;;;;;5008307;28;20041;-64
2022/04/30 09:15:44;;;;;;;41.55;19.33;;;14.40;99.90;;;;;;5008756;28;20060;-63
2022/04/30 09:18:11;;;;;;;37.75;20.17;;;14.20;99.90;;;;;;5008109;28;20029;-62
2022/04/30 09:20:42;;;;;;;38.65;18.63;;;14.00;99.90;;;;;;5009391;28;20093;-63
2022/04/30 09:23:10;;;;;;;37.90;20.40;;;13.80;99.90;;;;;;5004977;28;20034;-64
2022/04/30 09:25:36;;;;;;;43.45;20.13;;;13.40;99.90;;;;;;5002864;28;20512;-62
2022/04/30 09:28:01;;;;;;;38.13;19.23;;;13.50;99.90;;;;;;5006885;28;20475;-63
2022/04/30 09:30:29;;;;;;;46.70;20.15;;;13.50;99.90;;;;;;5007885;28;20026;-63
2022/04/30 09:33:05;;;;;;;48.00;20.67;;;13.40;99.90;;;;;;4983813;28;20057;-62
2022/04/30 09:38:16;;;;;;;45.45;19.77;;;13.60;99.90;;;;;;5007023;28;21836;-63
2022/04/30 09:41:00;;;;;;;40.90;19.65;;;13.50;99.90;;;;;;5009015;28;20029;-63
2022/04/30 09:43:30;;;;;;;39.85;20.05;;;13.30;99.90;;;;;;5007711;28;20034;-63
2022/04/30 09:46:06;;;;;;;46.60;20.35;;;13.20;99.90;;;;;;5007480;28;20673;-62
2022/04/30 09:54:01;;;;;;;40.95;20.65;;;13.40;99.90;;;;;;5006523;28;20145;-63
2022/04/30 09:56:27;;;;;;;45.03;20.90;;;13.40;99.90;;;;;;4999949;28;20104;-63
2022/04/30 09:58:54;;;;;;;41.75;20.08;;;13.40;99.90;;;;;;5008587;28;20030;-63
2022/04/30 10:01:20;;;;;;;39.45;20.48;;;13.60;99.90;;;;;;4991766;28;20034;-63
2022/04/30 10:03:47;;;;;;;41.53;20.20;;;13.50;99.90;;;;;;4992708;28;20100;-63
2022/04/30 10:06:14;;;;;;;40.97;19.67;;;13.40;99.90;;;;;;5019085;28;20120;-63
2022/04/30 10:08:41;;;;;;;40.22;19.75;;;13.40;99.90;;;;;;5007757;28;20034;-63
2022/04/30 10:11:26;;;;;;;41.78;19.58;;;13.40;99.90;;;;;;5012234;28;20026;-63
2022/04/30 10:13:57;;;;;;;40.60;20.35;;;13.40;99.90;;;;;;5007595;28;20037;-63
2022/04/30 10:16:30;;;;;;;43.53;19.95;;;13.30;99.90;;;;;;4996632;28;20052;-64
2022/04/30 10:19:09;;;;;;;45.88;20.65;;;13.40;99.90;;;;;;4971904;28;20438;-62
2022/04/30 10:21:35;;;;;;;47.22;20.63;;;13.40;99.90;;;;;;5005626;28;20111;-63
2022/04/30 10:24:03;;;;;;;40.47;20.10;;;13.50;99.90;;;;;;5006867;28;20026;-63
2022/04/30 10:26:28;;;;;;;41.28;19.92;;;13.80;99.90;;;;;;5008665;28;20036;-63
2022/04/30 10:28:59;;;;;;;45.00;20.85;;;13.90;99.90;;;;;;5008177;28;20112;-63
2022/04/30 10:31:24;;;;;;;42.67;20.50;;;13.70;99.90;;;;;;4993503;28;20030;-63
2022/04/30 10:33:51;;;;;;;38.38;20.02;;;13.70;99.90;;;;;;5007024;28;20041;-63
2022/04/30 10:36:18;;;;;;;42.10;20.42;;;13.90;99.90;;;;;;4993683;28;20042;-63
2022/04/30 10:38:55;;;;;;;36.35;19.80;;;14.00;99.90;;;;;;5007307;28;20468;-63
2022/04/30 10:41:21;;;;;;;43.70;20.75;;;14.10;99.90;;;;;;5005456;28;20033;-63
2022/04/30 10:43:47;;;;;;;36.83;19.63;;;14.20;99.90;;;;;;5010717;28;20117;-63
2022/04/30 10:46:21;;;;;;;42.45;20.45;;;14.60;99.90;;;;;;4998525;28;20126;-64
2022/04/30 10:48:47;;;;;;;37.28;20.58;;;14.90;99.90;;;;;;5015812;28;20060;-63
2022/04/30 10:51:15;;;;;;;38.00;20.15;;;14.90;99.90;;;;;;5006348;28;20026;-64
2022/04/30 10:53:45;;;;;;;44.20;21.80;;;15.10;99.90;;;;;;5008956;28;20073;-63
2022/04/30 10:56:12;;;;;;;39.90;19.30;;;15.20;99.90;;;;;;5011315;28;20471;-64
2022/04/30 10:58:41;;;;;;;39.85;20.80;;;14.80;99.90;;;;;;4997552;28;20077;-63
2022/04/30 11:01:18;;;;;;;38.90;19.52;;;14.50;99.90;;;;;;5000576;28;20069;-63
2022/04/30 11:03:51;;;;;;;38.80;20.25;;;14.80;99.90;;;;;;4998508;28;20026;-63
2022/04/30 11:06:24;;;;;;;41.70;19.85;;;15.00;99.90;;;;;;5010881;28;20048;-64
2022/04/30 11:09:04;;;;;;;37.13;20.10;;;15.10;99.90;;;;;;5018470;28;20038;-63
2022/04/30 11:11:30;;;;;;;37.45;21.15;;;15.10;99.90;;;;;;5001359;28;20095;-63
2022/04/30 11:14:02;;;;;;;42.55;18.58;;;15.50;99.90;;;;;;5012335;28;20544;-63
2022/04/30 11:16:33;;;;;;;34.85;19.35;;;15.50;99.90;;;;;;5011234;28;20049;-62
2022/04/30 11:19:05;;;;;;;39.13;19.77;;;15.30;99.90;;;;;;5011010;28;20034;-63
2022/04/30 11:21:36;;;;;;;42.78;21.42;;;15.00;99.90;;;;;;5007489;28;20065;-63
2022/04/30 11:24:03;;;;;;;41.53;20.58;;;14.80;99.90;;;;;;5005496;28;20040;-62
2022/04/30 11:26:30;;;;;;;41.70;20.20;;;15.10;99.90;;;;;;5013279;28;20121;-63
2022/04/30 11:28:57;;;;;;;43.97;19.60;;;15.20;99.90;;;;;;5008658;28;20226;-64
2022/04/30 11:31:22;;;;;;;36.92;20.13;;;15.20;99.90;;;;;;5000003;28;20022;-63
2022/04/30 11:33:48;;;;;;;38.22;20.60;;;15.40;99.90;;;;;;4998097;28;20045;-63
2022/04/30 11:36:14;;;;;;;41.70;20.27;;;15.40;99.90;;;;;;5011056;28;20119;-64
2022/04/30 11:38:50;;;;;;;38.67;19.08;;;15.10;99.90;;;;;;5013943;28;20068;-63
2022/04/30 11:41:15;;;;;;;38.47;19.48;;;15.00;99.90;;;;;;4983375;28;20487;-63
2022/04/30 11:43:41;;;;;;;37.05;18.50;;;14.60;99.90;;;;;;5000690;28;20088;-64
2022/04/30 11:46:07;;;;;;;40.67;19.63;;;14.30;99.90;;;;;;5014188;28;20038;-64
2022/04/30 11:48:38;;;;;;;38.05;18.80;;;14.00;99.90;;;;;;4999120;28;20098;-63
2022/04/30 11:51:06;;;;;;;35.90;18.73;;;14.00;99.90;;;;;;4991119;28;20034;-62
2022/04/30 11:53:33;;;;;;;42.30;19.38;;;13.90;99.90;;;;;;5004211;28;20433;-64
2022/04/30 11:55:59;;;;;;;34.95;18.85;;;13.70;99.90;;;;;;5010678;28;20022;-63
2022/04/30 11:58:25;;;;;;;36.92;18.70;;;13.70;99.90;;;;;;4997868;28;20034;-63
2022/04/30 12:00:54;;;;;;;38.22;18.42;;;13.60;99.90;;;;;;5008819;28;20087;-64
2022/04/30 12:03:29;;;;;;;39.03;19.33;;;13.60;99.90;;;;;;5005900;28;20026;-63
2022/04/30 12:05:59;;;;;;;38.00;17.98;;;13.50;99.90;;;;;;4995889;28;20052;-63
2022/04/30 12:08:28;;;;;;;31.65;17.05;;;13.40;99.90;;;;;;5016609;28;20110;-63
2022/04/30 12:10:56;;;;;;;30.98;15.85;;;13.40;99.90;;;;;;5010566;28;20155;-65
2022/04/30 12:13:25;;;;;;;28.35;16.15;;;13.70;99.90;;;;;;5008508;28;20034;-64
2022/04/30 12:16:03;;;;;;;30.33;15.43;;;13.50;99.90;;;;;;5022268;28;20088;-64
2022/04/30 12:26:58;;;;;;;36.97;16.10;;;13.50;99.90;;;;;;4990631;28;20126;-63
2022/04/30 12:29:25;;;;;;;28.23;15.73;;;13.50;99.90;;;;;;5007942;28;20032;-64
2022/04/30 12:31:51;;;;;;;37.80;16.15;;;13.40;99.90;;;;;;5010329;28;20033;-64
2022/04/30 12:34:21;;;;;;;30.10;16.25;;;13.30;99.90;;;;;;4990756;28;20042;-64
2022/04/30 12:36:54;;;;;;;29.98;16.25;;;13.20;99.90;;;;;;5010116;28;20076;-64
2022/04/30 12:39:22;;;;;;;34.88;16.63;;;13.20;99.90;;;;;;5008147;28;20125;-64
2022/04/30 12:41:48;;;;;;;31.67;17.80;;;13.10;99.90;;;;;;5009142;28;20040;-64
2022/04/30 12:44:15;;;;;;;33.63;16.60;;;13.20;99.90;;;;;;5010218;28;20029;-63
2022/04/30 12:46:45;;;;;;;31.45;16.27;;;13.10;99.90;;;;;;5025321;28;20050;-63
2022/04/30 12:49:12;;;;;;;29.20;16.17;;;13.00;99.90;;;;;;5009285;28;20025;-63
2022/04/30 12:51:39;;;;;;;28.50;15.25;;;12.90;99.90;;;;;;5008145;28;20419;-64
2022/04/30 12:54:06;;;;;;;27.33;15.77;;;12.90;99.90;;;;;;5009807;28;20034;-63
2022/04/30 12:56:32;;;;;;;27.48;15.80;;;13.00;99.90;;;;;;4996056;28;20038;-63
2022/04/30 12:58:58;;;;;;;29.55;16.00;;;13.00;99.90;;;;;;4979308;28;20025;-64
2022/04/30 13:01:24;;;;;;;34.72;18.20;;;12.90;99.90;;;;;;5007261;28;20033;-64
2022/04/30 13:03:50;;;;;;;38.35;16.98;;;12.80;99.90;;;;;;4990766;28;20064;-63
2022/04/30 13:06:17;;;;;;;30.05;15.93;;;12.60;99.90;;;;;;5009309;28;20034;-62
2022/04/30 13:14:12;;;;;;;14.98;8.35;;;11.80;99.90;;;;;;5006861;28;20457;-62
2022/04/30 13:16:38;;;;;;;15.07;8.63;;;11.70;99.90;;;;;;5007719;28;20121;-62
2022/04/30 13:19:04;;;;;;;15.40;8.98;;;11.40;99.90;;;;;;4991834;28;20057;-63
2022/04/30 13:21:30;;;;;;;16.17;8.75;;;11.30;99.90;;;;;;5001143;28;20042;-62